Time;durP1;ratioP1;P1;durP2;ratioP2;P2;SDS_P1;SDS_P2;PMS_P1;PMS_P2;Temp;Humidity;BMP_temperature;BMP_pressure;BME280_temperature;BME280_humidity;BME280_pressure;Samples;Min_cycle;Max_cycle;Signal;HPM_P1;HPM_P2
2022/10/01 00:00:46;;;;;;;;;;;;;;;18.52;74.01;101183.47;5075552;28;19922;-89
2022/10/01 00:03:11;;;;;;;;;;;;;;;18.60;73.87;101180.56;5093468;28;19920;-89
2022/10/01 00:05:37;;;;;;;;;;;;;;;18.58;73.71;101188.09;5093052;28;19924;-87
2022/10/01 00:08:02;;;;;;;;;;;;;;;18.55;73.85;101189.34;5070180;28;19916;-87
2022/10/01 00:10:29;;;;;;;;;;;;;;;18.43;74.51;101193.69;5098374;28;19919;-88
2022/10/01 00:12:54;;;;;;;;;;;;;;;18.39;74.42;101191.56;5096481;28;19916;-87
2022/10/01 00:15:20;;;;;;;;;;;;;;;18.38;74.57;101200.75;5075831;28;19919;-88
2022/10/01 00:17:46;;;;;;;;;;;;;;;18.35;74.76;101205.56;5063076;28;20415;-88
2022/10/01 00:20:11;;;;;;;;;;;;;;;18.27;74.99;101202.16;5091685;28;19912;-88
2022/10/01 00:22:36;;;;;;;;;;;;;;;18.22;74.98;101199.19;5091951;28;19931;-89
2022/10/01 00:25:02;;;;;;;;;;;;;;;18.19;75.36;101205.88;5092445;28;19988;-88
2022/10/01 00:27:28;;;;;;;;;;;;;;;18.06;75.90;101203.88;5092314;28;19974;-90
2022/10/01 00:29:53;;;;;;;;;;;;;;;18.01;76.11;101208.22;5075437;28;20414;-90
2022/10/01 00:32:21;;;;;;;;;;;;;;;18.02;76.15;101208.00;5056890;28;19920;-89
2022/10/01 00:34:47;;;;;;;;;;;;;;;18.06;75.95;101216.66;5073419;28;19959;-89
2022/10/01 00:37:13;;;;;;;;;;;;;;;18.12;75.62;101210.41;5091268;28;19959;-89
2022/10/01 00:39:38;;;;;;;;;;;;;;;18.12;75.26;101202.22;5091659;28;20030;-87
2022/10/01 00:42:11;;;;;;;;;;;;;;;18.10;75.29;101212.50;5091226;28;19916;-88
2022/10/01 00:44:37;;;;;;;;;;;;;;;18.00;75.01;101206.53;5073869;28;20022;-88
2022/10/01 00:47:04;;;;;;;;;;;;;;;18.04;74.53;101208.66;5072840;28;20339;-88
2022/10/01 00:49:30;;;;;;;;;;;;;;;18.07;74.43;101215.59;5073393;28;19989;-88
2022/10/01 00:51:59;;;;;;;;;;;;;;;18.10;73.96;101220.66;5090801;28;20380;-88
2022/10/01 00:54:30;;;;;;;;;;;;;;;18.08;73.90;101209.97;5092002;28;20010;-88
2022/10/01 00:56:55;;;;;;;;;;;;;;;18.17;73.30;101213.38;5058273;28;19924;-88
2022/10/01 00:59:20;;;;;;;;;;;;;;;18.20;73.04;101220.31;5077766;28;19912;-88
2022/10/01 01:01:45;;;;;;;;;;;;;;;18.24;72.67;101217.00;5091722;28;19924;-88
2022/10/01 01:04:17;;;;;;;;;;;;;;;18.13;73.05;101222.97;5075580;28;20313;-89
2022/10/01 01:06:46;;;;;;;;;;;;;;;18.26;72.52;101223.09;5079249;28;19920;-89
2022/10/01 01:09:11;;;;;;;;;;;;;;;18.26;72.43;101220.38;5093813;28;20384;-88
2022/10/01 01:11:45;;;;;;;;;;;;;;;18.31;72.16;101214.34;5092511;28;19930;-89
2022/10/01 01:14:16;;;;;;;;;;;;;;;18.38;71.90;101211.63;5087174;28;19970;-86
2022/10/01 01:17:07;;;;;;;;;;;;;;;18.41;71.81;101203.09;5105869;28;19920;-87
2022/10/01 01:20:08;;;;;;;;;;;;;;;18.38;71.77;101206.19;5083707;28;19986;-89
2022/10/01 01:22:34;;;;;;;;;;;;;;;18.39;71.78;101200.56;5026991;28;19917;-87
2022/10/01 01:24:59;;;;;;;;;;;;;;;18.35;71.79;101205.56;5068497;28;19966;-87
2022/10/01 01:27:26;;;;;;;;;;;;;;;18.39;71.49;101199.72;5092953;28;19947;-88
2022/10/01 01:30:03;;;;;;;;;;;;;;;18.40;71.34;101198.66;5074572;28;19908;-89
2022/10/01 01:32:34;;;;;;;;;;;;;;;18.40;71.19;101201.38;5076700;28;19920;-91
2022/10/01 01:34:59;;;;;;;;;;;;;;;18.38;71.19;101188.00;5074456;28;19921;-87
2022/10/01 01:37:25;;;;;;;;;;;;;;;18.42;70.87;101191.97;5072325;28;19927;-88
2022/10/01 01:39:50;;;;;;;;;;;;;;;18.36;71.14;101195.53;5073363;28;19916;-87
2022/10/01 01:42:20;;;;;;;;;;;;;;;18.31;71.07;101187.13;5073251;28;20062;-88
2022/10/01 01:44:45;;;;;;;;;;;;;;;18.33;70.52;101183.16;5058347;28;20017;-88
2022/10/01 01:47:10;;;;;;;;;;;;;;;18.31;70.70;101182.50;5076501;28;20421;-88
2022/10/01 01:49:39;;;;;;;;;;;;;;;18.34;70.45;101181.25;5077933;28;20360;-87
2022/10/01 01:52:12;;;;;;;;;;;;;;;18.34;70.59;101182.09;5095195;28;19924;-88
2022/10/01 01:54:38;;;;;;;;;;;;;;;18.29;70.27;101187.31;5057607;28;20065;-88
2022/10/01 01:57:03;;;;;;;;;;;;;;;18.36;70.30;101190.06;5067097;28;19991;-88
2022/10/01 01:59:28;;;;;;;;;;;;;;;18.33;70.56;101196.75;5060526;28;19912;-89
2022/10/01 02:01:54;;;;;;;;;;;;;;;18.36;70.23;101195.53;5095456;28;19916;-88
2022/10/01 02:04:24;;;;;;;;;;;;;;;18.35;70.35;101182.94;5095110;28;20390;-86
2022/10/01 02:06:53;;;;;;;;;;;;;;;18.26;70.78;101197.72;5077287;28;19920;-88
2022/10/01 02:09:29;;;;;;;;;;;;;;;18.30;70.79;101197.13;5094969;28;20342;-88
2022/10/01 02:12:06;;;;;;;;;;;;;;;18.24;71.16;101195.22;5084355;28;19946;-88
2022/10/01 02:14:50;;;;;;;;;;;;;;;18.12;72.18;101204.94;5077309;28;19912;-88
2022/10/01 02:17:36;;;;;;;;;;;;;;;18.09;71.95;101205.34;5095158;28;20011;-89
2022/10/01 02:20:14;;;;;;;;;;;;;;;17.99;72.30;101210.31;5053716;28;19923;-89
2022/10/01 02:22:48;;;;;;;;;;;;;;;17.97;72.41;101201.50;5062436;28;19925;-88
2022/10/01 02:25:13;;;;;;;;;;;;;;;17.73;73.11;101209.00;5077327;28;19999;-89
2022/10/01 02:27:40;;;;;;;;;;;;;;;17.63;73.61;101205.75;5077690;28;19924;-89
2022/10/01 02:30:08;;;;;;;;;;;;;;;17.54;74.03;101196.06;5077912;28;19916;-88
2022/10/01 02:32:37;;;;;;;;;;;;;;;17.59;73.53;101196.31;5078492;28;19920;-88
2022/10/01 02:35:03;;;;;;;;;;;;;;;17.46;73.87;101194.28;5077668;28;19916;-88
2022/10/01 02:37:29;;;;;;;;;;;;;;;17.41;74.23;101192.16;5077318;28;19969;-88
2022/10/01 02:39:54;;;;;;;;;;;;;;;17.40;74.29;101204.06;5076999;28;19916;-88
2022/10/01 02:42:20;;;;;;;;;;;;;;;17.33;74.49;101205.03;5075423;28;20401;-87
2022/10/01 02:44:45;;;;;;;;;;;;;;;17.26;74.43;101205.78;5094873;28;20322;-89
2022/10/01 02:47:19;;;;;;;;;;;;;;;17.30;74.24;101203.53;5076653;28;19916;-89
2022/10/01 02:49:45;;;;;;;;;;;;;;;17.26;73.92;101197.66;5095083;28;19912;-89
2022/10/01 02:52:30;;;;;;;;;;;;;;;17.36;73.61;101208.19;5076369;28;20046;-88
2022/10/01 02:54:55;;;;;;;;;;;;;;;17.42;73.34;101209.28;5090932;28;19912;-88
2022/10/01 02:57:25;;;;;;;;;;;;;;;17.39;73.40;101210.53;5074539;28;20006;-87
2022/10/01 02:59:51;;;;;;;;;;;;;;;17.35;73.48;101198.38;5094528;28;19912;-88
2022/10/01 03:02:16;;;;;;;;;;;;;;;17.27;73.75;101209.34;5094548;28;20324;-90
2022/10/01 03:04:42;;;;;;;;;;;;;;;17.37;73.30;101214.47;5076777;28;19916;-89
2022/10/01 03:07:07;;;;;;;;;;;;;;;17.30;73.59;101211.66;5075783;28;19923;-88
2022/10/01 03:09:33;;;;;;;;;;;;;;;17.34;73.26;101210.25;5078348;28;20434;-89
2022/10/01 03:11:59;;;;;;;;;;;;;;;17.37;73.01;101209.03;5103685;28;19962;-89
2022/10/01 03:14:24;;;;;;;;;;;;;;;17.43;72.81;101200.97;5086112;28;19917;-89
2022/10/01 03:16:50;;;;;;;;;;;;;;;17.43;72.36;101206.38;5087729;28;19916;-87
2022/10/01 03:19:15;;;;;;;;;;;;;;;17.40;72.48;101206.78;5112222;28;19912;-88
2022/10/01 03:21:40;;;;;;;;;;;;;;;17.46;71.88;101208.72;5107327;28;19930;-88
2022/10/01 03:24:06;;;;;;;;;;;;;;;17.37;71.87;101209.03;5097170;28;19961;-87
2022/10/01 03:26:31;;;;;;;;;;;;;;;17.41;70.86;101211.16;5078044;28;19920;-88
2022/10/01 03:28:57;;;;;;;;;;;;;;;17.40;71.02;101212.22;5077991;28;19927;-87
2022/10/01 03:31:22;;;;;;;;;;;;;;;17.33;71.26;101222.19;5094817;28;20019;-90
2022/10/01 03:33:47;;;;;;;;;;;;;;;17.31;71.27;101218.81;5094508;28;19920;-87
2022/10/01 03:36:13;;;;;;;;;;;;;;;17.23;71.10;101227.94;5096837;28;19967;-89
2022/10/01 03:38:38;;;;;;;;;;;;;;;17.26;70.38;101230.25;5094110;28;20243;-89
2022/10/01 03:41:03;;;;;;;;;;;;;;;17.20;70.43;101238.31;5094424;28;20378;-88
2022/10/01 03:43:29;;;;;;;;;;;;;;;17.07;70.36;101241.72;5077374;28;19923;-87
2022/10/01 03:45:55;;;;;;;;;;;;;;;17.15;70.12;101247.03;5095284;28;19946;-88
2022/10/01 03:48:20;;;;;;;;;;;;;;;17.12;70.42;101244.72;5061452;28;20311;-88
2022/10/01 03:50:53;;;;;;;;;;;;;;;17.09;70.24;101245.94;5077151;28;19916;-88
2022/10/01 03:53:19;;;;;;;;;;;;;;;16.97;70.38;101254.75;5076836;28;19927;-87
2022/10/01 03:55:44;;;;;;;;;;;;;;;16.97;70.58;101252.84;5095387;28;19921;-86
2022/10/01 03:58:09;;;;;;;;;;;;;;;16.96;70.49;101248.47;5109826;28;20506;-89
2022/10/01 04:00:34;;;;;;;;;;;;;;;16.83;70.91;101259.16;5076018;28;19916;-87
2022/10/01 04:03:00;;;;;;;;;;;;;;;16.85;70.80;101252.50;5074422;28;19924;-86
2022/10/01 04:05:25;;;;;;;;;;;;;;;16.88;70.78;101245.88;5104914;28;19916;-88
2022/10/01 04:07:50;;;;;;;;;;;;;;;16.97;70.06;101247.44;5087503;28;19927;-88
2022/10/01 04:10:15;;;;;;;;;;;;;;;16.97;70.27;101249.31;5107321;28;19979;-89
2022/10/01 04:12:41;;;;;;;;;;;;;;;17.05;69.41;101257.38;5097796;28;19920;-89
2022/10/01 04:15:06;;;;;;;;;;;;;;;17.13;69.29;101267.28;5094823;28;19916;-88
2022/10/01 04:17:32;;;;;;;;;;;;;;;17.14;68.86;101267.09;5093991;28;19916;-88
2022/10/01 04:19:59;;;;;;;;;;;;;;;17.18;68.52;101267.56;5074838;28;19920;-89
2022/10/01 04:22:24;;;;;;;;;;;;;;;17.15;69.03;101270.66;5092353;28;19927;-87
2022/10/01 04:24:49;;;;;;;;;;;;;;;17.18;68.76;101273.81;5074563;28;19916;-88
2022/10/01 04:27:14;;;;;;;;;;;;;;;17.18;69.09;101278.41;5092887;28;19920;-89
2022/10/01 04:29:40;;;;;;;;;;;;;;;17.20;69.03;101266.31;5094030;28;20019;-89
2022/10/01 04:32:05;;;;;;;;;;;;;;;17.27;68.69;101260.97;5092925;28;20437;-89
2022/10/01 04:37:15;;;;;;;;;;;;;;;17.39;68.61;101262.16;5092518;28;19946;-89
2022/10/01 04:39:40;;;;;;;;;;;;;;;17.51;68.47;101262.50;5077029;28;19916;-88
2022/10/01 04:42:05;;;;;;;;;;;;;;;17.50;68.00;101261.66;5074427;28;20384;-87
2022/10/01 04:44:31;;;;;;;;;;;;;;;17.56;67.95;101256.50;5095892;28;19917;-89
2022/10/01 04:46:56;;;;;;;;;;;;;;;17.62;67.86;101253.84;5075540;28;20011;-87
2022/10/01 04:49:21;;;;;;;;;;;;;;;17.63;67.81;101260.13;5095283;28;20370;-88
2022/10/01 04:51:47;;;;;;;;;;;;;;;17.70;67.72;101255.63;5102073;28;19920;-86
2022/10/01 04:54:12;;;;;;;;;;;;;;;17.73;67.67;101255.22;5117000;28;19908;-86
2022/10/01 04:56:37;;;;;;;;;;;;;;;17.86;67.22;101249.97;5115833;28;19928;-87
2022/10/01 04:59:02;;;;;;;;;;;;;;;17.92;66.84;101254.59;5116698;28;19915;-86
2022/10/01 05:01:29;;;;;;;;;;;;;;;18.02;66.58;101259.72;5102682;28;20367;-88
2022/10/01 05:03:55;;;;;;;;;;;;;;;17.96;67.01;101259.66;5093130;28;19916;-87
2022/10/01 05:06:20;;;;;;;;;;;;;;;18.03;66.57;101266.03;5092850;28;20416;-87
2022/10/01 05:08:47;;;;;;;;;;;;;;;17.98;66.53;101260.28;5093905;28;19965;-90
2022/10/01 05:11:12;;;;;;;;;;;;;;;18.03;66.33;101266.03;5093072;28;19923;-88
2022/10/01 05:13:37;;;;;;;;;;;;;;;18.09;66.14;101271.50;5099516;28;19920;-87
2022/10/01 05:16:02;;;;;;;;;;;;;;;18.16;65.99;101265.28;5094680;28;20421;-88
2022/10/01 05:18:28;;;;;;;;;;;;;;;18.10;65.94;101272.34;5092370;28;19927;-87
2022/10/01 05:20:54;;;;;;;;;;;;;;;18.04;66.42;101268.53;5092113;28;19912;-88
2022/10/01 05:23:19;;;;;;;;;;;;;;;18.14;65.89;101269.06;5074343;28;20302;-88
2022/10/01 05:25:45;;;;;;;;;;;;;;;18.19;65.46;101268.47;5093762;28;19916;-87
2022/10/01 05:28:10;;;;;;;;;;;;;;;18.22;65.55;101265.34;5066506;28;20415;-88
2022/10/01 05:30:36;;;;;;;;;;;;;;;18.35;65.30;101264.59;5077862;28;19924;-87
2022/10/01 05:33:02;;;;;;;;;;;;;;;18.38;64.97;101272.38;5085297;28;20368;-86
2022/10/01 05:35:27;;;;;;;;;;;;;;;18.55;64.81;101267.47;5108974;28;19916;-86
2022/10/01 05:37:56;;;;;;;;;;;;;;;18.69;64.53;101290.19;5099820;28;19950;-86
2022/10/01 05:40:23;;;;;;;;;;;;;;;18.82;64.10;101286.72;5075905;28;20445;-88
2022/10/01 05:42:48;;;;;;;;;;;;;;;19.08;63.48;101292.34;5093361;28;19924;-87
2022/10/01 05:45:13;;;;;;;;;;;;;;;20.06;60.35;101283.84;5093658;28;20019;-87
2022/10/01 05:47:41;;;;;;;;;;;;;;;21.02;57.92;101294.28;5092506;28;20347;-87
2022/10/01 05:50:06;;;;;;;;;;;;;;;21.73;55.44;101295.28;5074771;28;20004;-88
2022/10/01 05:52:32;;;;;;;;;;;;;;;22.43;53.11;101292.50;5059075;28;19943;-88
2022/10/01 05:54:57;;;;;;;;;;;;;;;23.09;51.37;101298.41;5096538;28;19927;-87
2022/10/01 05:57:22;;;;;;;;;;;;;;;23.67;49.14;101299.75;5090857;28;19920;-88
2022/10/01 05:59:47;;;;;;;;;;;;;;;24.27;47.55;101298.88;5091335;28;19920;-89
2022/10/01 06:02:13;;;;;;;;;;;;;;;24.83;46.41;101297.50;5090446;28;19923;-88
2022/10/01 06:04:38;;;;;;;;;;;;;;;25.31;44.75;101306.53;5090892;28;20302;-89
2022/10/01 06:07:03;;;;;;;;;;;;;;;25.77;43.68;101318.47;5090545;28;19920;-88
2022/10/01 06:09:29;;;;;;;;;;;;;;;26.22;42.60;101315.75;5072962;28;19924;-89
2022/10/01 06:11:54;;;;;;;;;;;;;;;26.60;41.75;101305.91;5067832;28;19916;-89
2022/10/01 06:14:20;;;;;;;;;;;;;;;26.90;40.75;101299.16;5089868;28;19919;-88
2022/10/01 06:16:46;;;;;;;;;;;;;;;27.27;40.07;101298.56;5090250;28;19911;-89
2022/10/01 06:19:11;;;;;;;;;;;;;;;27.60;39.49;101292.03;5088987;28;20003;-88
2022/10/01 06:21:37;;;;;;;;;;;;;;;27.84;39.27;101289.84;5072292;28;20017;-87
2022/10/01 06:24:02;;;;;;;;;;;;;;;28.03;38.73;101283.97;5072404;28;20357;-89
2022/10/01 06:26:28;;;;;;;;;;;;;;;28.24;38.67;101285.78;5072215;28;19931;-88
2022/10/01 06:28:53;;;;;;;;;;;;;;;28.46;38.71;101282.94;5086170;28;20260;-88
2022/10/01 06:31:19;;;;;;;;;;;;;;;28.56;38.10;101277.47;5090680;28;19920;-86
2022/10/01 06:33:45;;;;;;;;;;;;;;;28.69;38.08;101273.41;5095043;28;19927;-88
2022/10/01 06:36:10;;;;;;;;;;;;;;;28.86;38.58;101264.09;5093659;28;20305;-88
2022/10/01 06:38:35;;;;;;;;;;;;;;;29.12;37.55;101267.84;5094385;28;19920;-88
2022/10/01 06:41:02;;;;;;;;;;;;;;;29.39;37.34;101264.91;5095430;28;19923;-88
2022/10/01 06:43:28;;;;;;;;;;;;;;;29.60;37.47;101255.53;5095157;28;19927;-87
2022/10/01 06:45:54;;;;;;;;;;;;;;;29.89;36.69;101266.13;5093508;28;19917;-88
2022/10/01 06:48:19;;;;;;;;;;;;;;;30.19;36.08;101264.47;5096063;28;20424;-89
2022/10/01 06:50:45;;;;;;;;;;;;;;;30.45;36.17;101257.81;5095647;28;19926;-88
2022/10/01 06:53:11;;;;;;;;;;;;;;;30.72;35.67;101256.66;5065471;28;20310;-89
2022/10/01 06:55:37;;;;;;;;;;;;;;;30.82;35.58;101251.06;5095204;28;19969;-89
2022/10/01 06:58:03;;;;;;;;;;;;;;;31.02;34.36;101246.56;5074448;28;19924;-88
2022/10/01 07:00:29;;;;;;;;;;;;;;;31.20;34.56;101250.66;5093754;28;20417;-89
2022/10/01 07:02:55;;;;;;;;;;;;;;;31.33;34.27;101250.03;5074865;28;20353;-88
2022/10/01 07:05:20;;;;;;;;;;;;;;;31.62;34.53;101255.72;5094232;28;19920;-88
2022/10/01 07:07:47;;;;;;;;;;;;;;;31.81;33.71;101255.03;5068449;28;20000;-88
2022/10/01 07:10:13;;;;;;;;;;;;;;;32.06;32.44;101252.09;5093598;28;19917;-89
2022/10/01 07:12:38;;;;;;;;;;;;;;;32.54;31.84;101256.94;5076305;28;19954;-88
2022/10/01 07:15:07;;;;;;;;;;;;;;;32.99;31.22;101252.78;5095256;28;19916;-88
2022/10/01 07:17:33;;;;;;;;;;;;;;;33.54;30.22;101251.53;5095467;28;20037;-88
2022/10/01 07:19:59;;;;;;;;;;;;;;;34.04;28.88;101254.63;5059633;28;19951;-91
2022/10/01 07:22:24;;;;;;;;;;;;;;;34.42;27.36;101255.41;5076030;28;19919;-90
2022/10/01 07:24:50;;;;;;;;;;;;;;;34.95;27.60;101251.28;5075560;28;20003;-88
2022/10/01 07:27:15;;;;;;;;;;;;;;;35.50;26.25;101256.81;5075515;28;19920;-87
2022/10/01 07:29:41;;;;;;;;;;;;;;;35.53;25.61;101265.72;5094211;28;19931;-90
2022/10/01 07:32:08;;;;;;;;;;;;;;;35.75;25.44;101256.56;5075185;28;20291;-88
2022/10/01 07:34:34;;;;;;;;;;;;;;;36.26;23.54;101261.72;5076401;28;20008;-88
2022/10/01 07:36:59;;;;;;;;;;;;;;;37.10;24.06;101265.56;5075334;28;19923;-87
2022/10/01 07:39:24;;;;;;;;;;;;;;;37.81;22.08;101267.28;5067438;28;20003;-88
2022/10/01 07:41:50;;;;;;;;;;;;;;;38.34;19.95;101265.25;5071322;28;19923;-87
2022/10/01 07:44:16;;;;;;;;;;;;;;;38.82;18.83;101273.34;5077438;28;19963;-87
2022/10/01 07:46:41;;;;;;;;;;;;;;;39.37;18.63;101270.75;5095491;28;20368;-88
2022/10/01 07:49:07;;;;;;;;;;;;;;;39.95;17.21;101263.31;5091236;28;19912;-88
2022/10/01 07:51:32;;;;;;;;;;;;;;;40.26;17.26;101260.03;5054477;28;19920;-88
2022/10/01 07:53:58;;;;;;;;;;;;;;;40.01;17.02;101264.72;5101956;28;19920;-88
2022/10/01 07:56:23;;;;;;;;;;;;;;;40.57;17.33;101263.47;5103196;28;19931;-87
2022/10/01 07:58:49;;;;;;;;;;;;;;;40.95;16.89;101262.31;5106820;28;19916;-87
2022/10/01 08:01:15;;;;;;;;;;;;;;;41.12;16.79;101264.94;5112700;28;19931;-88
2022/10/01 08:03:41;;;;;;;;;;;;;;;40.83;15.90;101266.78;5094730;28;19923;-87
2022/10/01 08:06:06;;;;;;;;;;;;;;;41.42;16.48;101265.47;5096847;28;19916;-89
2022/10/01 08:08:32;;;;;;;;;;;;;;;42.15;15.57;101260.72;5087430;28;19954;-87
2022/10/01 08:10:57;;;;;;;;;;;;;;;42.66;15.27;101266.50;5092164;28;20379;-87
2022/10/01 08:13:25;;;;;;;;;;;;;;;43.38;15.14;101257.72;5090112;28;19920;-87
2022/10/01 08:15:53;;;;;;;;;;;;;;;44.15;14.54;101249.59;5110206;28;19916;-88
2022/10/01 08:18:21;;;;;;;;;;;;;;;43.80;14.25;101244.84;5077694;28;19927;-87
2022/10/01 08:20:47;;;;;;;;;;;;;;;43.53;14.50;101247.53;5093461;28;19947;-87
2022/10/01 08:23:13;;;;;;;;;;;;;;;43.71;14.54;101230.13;5091742;28;20376;-87
2022/10/01 08:25:39;;;;;;;;;;;;;;;43.68;14.47;101237.34;5091983;28;20013;-87
2022/10/01 08:28:05;;;;;;;;;;;;;;;43.52;14.41;101230.91;5091640;28;19924;-88
2022/10/01 08:30:30;;;;;;;;;;;;;;;43.33;14.83;101240.22;5091864;28;19965;-87
2022/10/01 08:32:56;;;;;;;;;;;;;;;44.34;14.41;101237.38;5091806;28;19920;-87
2022/10/01 08:35:22;;;;;;;;;;;;;;;44.74;14.20;101238.84;5073917;28;19957;-88
2022/10/01 08:37:47;;;;;;;;;;;;;;;44.37;13.93;101230.94;5073323;28;19923;-88
2022/10/01 08:40:12;;;;;;;;;;;;;;;45.55;13.69;101229.09;5055441;28;19978;-88
2022/10/01 08:42:56;;;;;;;;;;;;;;;46.04;13.12;101216.69;5056766;28;20391;-87
2022/10/01 08:45:25;;;;;;;;;;;;;;;46.42;12.57;101206.88;5074159;28;20433;-88
2022/10/01 08:47:56;;;;;;;;;;;;;;;46.24;12.83;101211.56;5073569;28;20399;-88
2022/10/01 08:50:27;;;;;;;;;;;;;;;45.72;13.06;101205.78;5091692;28;20278;-88
2022/10/01 08:52:57;;;;;;;;;;;;;;;45.46;13.11;101216.00;5060999;28;19957;-87
2022/10/01 08:55:23;;;;;;;;;;;;;;;44.99;12.88;101214.56;5074492;28;19918;-86
2022/10/01 08:57:50;;;;;;;;;;;;;;;46.65;12.24;101214.38;5073290;28;19919;-86
2022/10/01 09:00:16;;;;;;;;;;;;;;;45.76;12.65;101211.50;5074447;28;19916;-87
2022/10/01 09:02:42;;;;;;;;;;;;;;;46.85;11.84;101223.44;5073453;28;20019;-88
2022/10/01 09:05:21;;;;;;;;;;;;;;;47.75;11.53;101224.69;5092546;28;19923;-89
2022/10/01 09:07:46;;;;;;;;;;;;;;;48.18;11.48;101224.78;5073482;28;20039;-89
2022/10/01 09:10:24;;;;;;;;;;;;;;;49.45;10.57;101218.44;5073815;28;20435;-88
2022/10/01 09:12:49;;;;;;;;;;;;;;;50.20;10.30;101211.47;5091176;28;19920;-87
2022/10/01 09:15:24;;;;;;;;;;;;;;;50.71;10.34;101203.25;5092283;28;19924;-87
2022/10/01 09:18:08;;;;;;;;;;;;;;;51.12;9.79;101206.09;5073119;28;20422;-88
2022/10/01 09:20:35;;;;;;;;;;;;;;;51.50;9.67;101203.13;5061393;28;19920;-87
2022/10/01 09:23:07;;;;;;;;;;;;;;;50.92;10.00;101211.59;5091052;28;19970;-87
2022/10/01 09:25:33;;;;;;;;;;;;;;;48.91;10.82;101206.38;5095932;28;19917;-87
2022/10/01 09:28:17;;;;;;;;;;;;;;;48.56;11.95;101196.66;5076541;28;19924;-87
2022/10/01 09:30:45;;;;;;;;;;;;;;;48.80;11.84;101195.03;5086841;28;19938;-88
2022/10/01 09:33:15;;;;;;;;;;;;;;;49.01;12.14;101185.63;5084944;28;19920;-88
2022/10/01 09:35:44;;;;;;;;;;;;;;;49.81;11.42;101186.84;5083832;28;20006;-88
2022/10/01 09:38:27;;;;;;;;;;;;;;;49.39;12.09;101188.72;5095422;28;19928;-87
2022/10/01 09:40:56;;;;;;;;;;;;;;;48.05;12.28;101184.47;5079259;28;20057;-87
2022/10/01 09:43:22;;;;;;;;;;;;;;;48.76;12.15;101186.47;5073138;28;19943;-87
2022/10/01 09:45:48;;;;;;;;;;;;;;;49.30;11.80;101183.47;5093698;28;19916;-86
2022/10/01 09:48:23;;;;;;;;;;;;;;;48.97;11.44;101199.06;5100093;28;19967;-85
2022/10/01 09:50:53;;;;;;;;;;;;;;;49.82;11.80;101206.41;5089835;28;19920;-87
2022/10/01 09:53:19;;;;;;;;;;;;;;;50.51;11.19;101191.59;5092590;28;19952;-86
2022/10/01 09:55:44;;;;;;;;;;;;;;;50.98;10.70;101189.88;5086298;28;19920;-87
2022/10/01 09:58:16;;;;;;;;;;;;;;;51.07;10.61;101183.63;5079964;28;20383;-88
2022/10/01 10:00:42;;;;;;;;;;;;;;;50.41;11.13;101196.97;5057362;28;19930;-88
2022/10/01 10:03:07;;;;;;;;;;;;;;;49.24;11.22;101196.50;5072345;28;19923;-87
2022/10/01 10:05:42;;;;;;;;;;;;;;;48.51;11.63;101188.53;5091894;28;19926;-87
2022/10/01 10:08:11;;;;;;;;;;;;;;;46.42;13.15;101186.97;5075880;28;19973;-87
2022/10/01 10:10:38;;;;;;;;;;;;;;;47.69;12.37;101184.38;5084772;28;20290;-87
2022/10/01 10:13:13;;;;;;;;;;;;;;;47.03;12.23;101181.69;5061993;28;19921;-88
2022/10/01 10:15:42;;;;;;;;;;;;;;;48.03;11.67;101178.38;5096855;28;20035;-87
2022/10/01 10:18:10;;;;;;;;;;;;;;;48.55;11.08;101170.19;5072244;28;19920;-87
2022/10/01 10:20:38;;;;;;;;;;;;;;;49.06;10.56;101168.06;5065790;28;20004;-88
2022/10/01 10:23:13;;;;;;;;;;;;;;;48.54;10.26;101162.88;5079043;28;20376;-87
2022/10/01 10:25:39;;;;;;;;;;;;;;;48.65;10.33;101159.19;5068529;28;19947;-88
2022/10/01 10:28:13;;;;;;;;;;;;;;;48.84;10.42;101155.06;5080233;28;19920;-87
2022/10/01 10:30:38;;;;;;;;;;;;;;;47.85;10.69;101144.16;5073534;28;20014;-87
2022/10/01 10:33:04;;;;;;;;;;;;;;;47.37;11.10;101150.13;5079343;28;20384;-87
2022/10/01 10:35:30;;;;;;;;;;;;;;;45.44;12.15;101147.44;5077064;28;20011;-87
2022/10/01 10:37:59;;;;;;;;;;;;;;;46.13;11.78;101143.28;5082713;28;19926;-88
2022/10/01 10:40:30;;;;;;;;;;;;;;;46.81;11.56;101142.97;5096108;28;19965;-87
2022/10/01 10:42:56;;;;;;;;;;;;;;;46.44;11.51;101143.97;5098967;28;19920;-88
2022/10/01 10:45:29;;;;;;;;;;;;;;;44.59;13.07;101142.25;5115359;28;19908;-88
2022/10/01 10:47:54;;;;;;;;;;;;;;;45.70;12.42;101137.19;5097790;28;19942;-87
2022/10/01 10:50:29;;;;;;;;;;;;;;;43.86;13.89;101137.75;5098611;28;19944;-87
2022/10/01 10:52:55;;;;;;;;;;;;;;;44.00;13.75;101136.00;5107669;28;19925;-87
2022/10/01 10:55:29;;;;;;;;;;;;;;;43.74;14.32;101122.63;5056853;28;20220;-88
2022/10/01 10:57:54;;;;;;;;;;;;;;;43.28;14.20;101116.03;5092405;28;20333;-87
2022/10/01 11:00:23;;;;;;;;;;;;;;;42.12;15.28;101118.25;5093744;28;19923;-87
2022/10/01 11:02:48;;;;;;;;;;;;;;;42.91;14.34;101108.78;5092964;28;19963;-87
2022/10/01 11:05:18;;;;;;;;;;;;;;;43.61;13.88;101107.00;5075303;28;19967;-88
2022/10/01 11:07:43;;;;;;;;;;;;;;;44.22;13.48;101100.38;5074692;28;19969;-88
2022/10/01 11:10:12;;;;;;;;;;;;;;;44.65;13.37;101100.19;5075052;28;19920;-88
2022/10/01 11:12:57;;;;;;;;;;;;;;;43.79;13.57;101085.50;5093018;28;19916;-87
2022/10/01 11:15:38;;;;;;;;;;;;;;;42.17;14.69;101075.59;5067527;28;19950;-87
2022/10/01 11:18:22;;;;;;;;;;;;;;;40.58;16.58;101063.09;5091864;28;20283;-88
2022/10/01 11:20:50;;;;;;;;;;;;;;;39.70;17.76;101056.16;5065522;28;19939;-88
2022/10/01 11:23:26;;;;;;;;;;;;;;;38.78;18.77;101047.59;5092690;28;20450;-86
2022/10/01 11:26:08;;;;;;;;;;;;;;;38.26;19.60;101039.53;5065971;28;20030;-89
2022/10/01 11:28:44;;;;;;;;;;;;;;;37.82;19.95;101036.09;5092654;28;19926;-88
2022/10/01 11:31:29;;;;;;;;;;;;;;;37.22;20.36;101032.28;5093024;28;19955;-88
2022/10/01 11:34:00;;;;;;;;;;;;;;;36.17;21.80;101034.16;5091575;28;19973;-87
2022/10/01 11:36:27;;;;;;;;;;;;;;;35.48;22.58;101020.66;5092414;28;20020;-88
2022/10/01 11:38:55;;;;;;;;;;;;;;;34.42;24.02;101020.13;5058167;28;20409;-88
2022/10/01 11:41:37;;;;;;;;;;;;;;;34.73;23.76;101019.47;5075110;28;19923;-88
2022/10/01 11:44:06;;;;;;;;;;;;;;;33.77;24.76;101022.00;5092414;28;19916;-89
2022/10/01 11:46:32;;;;;;;;;;;;;;;32.82;25.87;101010.22;5074032;28;20248;-87
2022/10/01 11:49:02;;;;;;;;;;;;;;;33.15;25.83;100990.78;5092568;28;19919;-90
2022/10/01 11:51:28;;;;;;;;;;;;;;;32.44;27.11;100978.78;5075532;28;20346;-88
2022/10/01 11:53:58;;;;;;;;;;;;;;;32.69;27.20;100964.50;5074461;28;20301;-87
2022/10/01 11:59:22;;;;;;;;;;;;;;;31.62;28.73;100988.13;5077861;28;19945;-87
2022/10/01 12:01:52;;;;;;;;;;;;;;;30.77;30.53;101004.09;5079943;28;19943;-86
2022/10/01 12:04:26;;;;;;;;;;;;;;;30.68;31.29;101023.28;5074488;28;20010;-87
2022/10/01 12:06:58;;;;;;;;;;;;;;;29.98;33.23;101026.09;5057352;28;19927;-87
2022/10/01 12:09:42;;;;;;;;;;;;;;;30.04;32.30;101019.41;5074549;28;20383;-87
2022/10/01 12:12:09;;;;;;;;;;;;;;;29.51;34.53;101009.84;5080225;28;19916;-88
2022/10/01 12:14:36;;;;;;;;;;;;;;;29.34;35.12;101010.13;5066316;28;19921;-88
2022/10/01 12:17:11;;;;;;;;;;;;;;;28.87;35.92;101008.41;5073658;28;19927;-87
2022/10/01 12:19:38;;;;;;;;;;;;;;;28.56;36.37;101022.19;5085766;28;19959;-88
2022/10/01 12:22:09;;;;;;;;;;;;;;;28.52;36.81;101019.16;5073516;28;19922;-87
2022/10/01 12:24:35;;;;;;;;;;;;;;;28.20;37.26;101019.28;5084859;28;19968;-87
2022/10/01 12:27:07;;;;;;;;;;;;;;;28.40;37.13;101012.97;5073492;28;19915;-88
2022/10/01 12:29:54;;;;;;;;;;;;;;;28.50;36.95;101002.00;5074531;28;20016;-88
2022/10/01 12:32:38;;;;;;;;;;;;;;;28.46;37.79;100994.50;5065507;28;20007;-87
2022/10/01 12:35:03;;;;;;;;;;;;;;;28.87;37.36;100989.03;5092441;28;20407;-87
2022/10/01 12:37:32;;;;;;;;;;;;;;;28.94;37.35;101000.66;5101720;28;19946;-86
2022/10/01 12:40:06;;;;;;;;;;;;;;;29.35;36.77;100987.69;5109171;28;19916;-85
2022/10/01 12:42:50;;;;;;;;;;;;;;;29.31;36.83;100989.34;5091839;28;19930;-88
2022/10/01 12:45:34;;;;;;;;;;;;;;;29.38;36.38;100973.28;5076383;28;19916;-89